Map

Track Data

SID SEASON NUMBER BASIN SUBBASIN NAME ISO_TIME NATURE LAT LON WMO_WIND WMO_PRES WMO_AGENCY TRACK_TYPE DIST2LAND LANDFALL IFLAG USA_AGENCY USA_ATCF_ID USA_LAT USA_LON USA_RECORD USA_STATUS USA_WIND USA_PRES USA_SSHS USA_R34_NE USA_R34_SE USA_R34_SW USA_R34_NW USA_R50_NE USA_R50_SE USA_R50_SW USA_R50_NW USA_R64_NE USA_R64_SE USA_R64_SW USA_R64_NW USA_POCI USA_ROCI USA_RMW USA_EYE TOKYO_LAT TOKYO_LON TOKYO_GRADE TOKYO_WIND TOKYO_PRES TOKYO_R50_DIR TOKYO_R50_LONG TOKYO_R50_SHORT TOKYO_R30_DIR TOKYO_R30_LONG TOKYO_R30_SHORT TOKYO_LAND CMA_LAT CMA_LON CMA_CAT CMA_WIND CMA_PRES HKO_LAT HKO_LON HKO_CAT HKO_WIND HKO_PRES NEWDELHI_LAT NEWDELHI_LON NEWDELHI_GRADE NEWDELHI_WIND NEWDELHI_PRES NEWDELHI_CI NEWDELHI_DP NEWDELHI_POCI REUNION_LAT REUNION_LON REUNION_TYPE REUNION_WIND REUNION_PRES REUNION_TNUM REUNION_CI REUNION_RMW REUNION_R34_NE REUNION_R34_SE REUNION_R34_SW REUNION_R34_NW REUNION_R50_NE REUNION_R50_SE REUNION_R50_SW REUNION_R50_NW REUNION_R64_NE REUNION_R64_SE REUNION_R64_SW REUNION_R64_NW BOM_LAT BOM_LON BOM_TYPE BOM_WIND BOM_PRES BOM_TNUM BOM_CI BOM_RMW BOM_R34_NE BOM_R34_SE BOM_R34_SW BOM_R34_NW BOM_R50_NE BOM_R50_SE BOM_R50_SW BOM_R50_NW BOM_R64_NE BOM_R64_SE BOM_R64_SW BOM_R64_NW BOM_ROCI BOM_POCI BOM_EYE BOM_POS_METHOD BOM_PRES_METHOD NADI_LAT NADI_LON NADI_CAT NADI_WIND NADI_PRES WELLINGTON_LAT WELLINGTON_LON WELLINGTON_WIND WELLINGTON_PRES DS824_LAT DS824_LON DS824_STAGE DS824_WIND DS824_PRES TD9636_LAT TD9636_LON TD9636_STAGE TD9636_WIND TD9636_PRES TD9635_LAT TD9635_LON TD9635_WIND TD9635_PRES TD9635_ROCI NEUMANN_LAT NEUMANN_LON NEUMANN_CLASS NEUMANN_WIND NEUMANN_PRES MLC_LAT MLC_LON MLC_CLASS MLC_WIND MLC_PRES USA_GUST BOM_GUST BOM_GUST_PER REUNION_GUST REUNION_GUST_PER USA_SEAHGT USA_SEARAD_NE USA_SEARAD_SE USA_SEARAD_SW USA_SEARAD_NW STORM_SPEED STORM_DIR
1977365S09188 1978 125 SP MM BOB 1977-12-31 00:00:00 TS -8.50000 187.500 main 559 548 O________O____ jtwc_sh SH111978 -8.50000 -172.500 35 0 -8.50000 187.500 TC 35 13 256
1977365S09188 1978 125 SP MM BOB 1977-12-31 03:00:00 TS -8.65772 186.845 main 539 533 P________P____ SH111978 -8.65772 -173.155 35 0 -8.65772 -173.155 TC 35 13 257
1977365S09188 1978 125 SP MM BOB 1977-12-31 06:00:00 TS -8.80000 186.200 main 537 534 O________O____ jtwc_sh SH111978 -8.80000 -173.800 35 0 -8.80000 186.200 TC 35 13 258
1977365S09188 1978 125 SP MM BOB 1977-12-31 09:00:00 TS -8.91493 185.577 main 543 543 P________P____ SH111978 -8.91493 -174.423 37 0 -8.91493 -174.423 TC 37 12 260
1977365S09188 1978 125 SP MM BOB 1977-12-31 12:00:00 TS -9.00000 185.000 main 558 558 O________OO___ jtwc_sh SH111978 -9.00000 -175.000 40 0 -9.00000 185.000 TC 40 -9.00000 -175.000 1 11 263
1977365S09188 1978 125 SP MM BOB 1977-12-31 15:00:00 TS -9.05632 184.486 main 574 574 P________PP___ SH111978 -9.05737 -175.515 40 0 -9.05737 -175.515 TC 40 -9.05213 -175.511 1 10 264
1977365S09188 1978 125 SP MM BOB 1977-12-31 18:00:00 TS -9.10085 183.995 main 603 603 O________OP___ jtwc_sh SH111978 -9.10000 -176.000 40 0 -9.10000 184.000 TC 40 -9.10312 -176.017 1 10 265
1977365S09188 1978 125 SP MM BOB 1977-12-31 21:00:00 TS -9.15082 183.490 main 628 628 P________PP___ SH111978 -9.14996 -176.508 42 0 -9.14996 -176.508 TC 42 -9.15254 -176.515 1 9 265
1977365S09188 1978 125 SP MM BOB 1978-01-01 00:00:00 TS -9.18462 183.077 main 657 657 O________OO_O_ jtwc_sh SH111978 -9.20000 -177.000 45 0 -9.20000 183.000 TC 45 -9.20000 -177.000 2 35 -9.00000 -176.000 TC 20 8 264
1977365S09188 1978 125 SP MM BOB 1978-01-01 03:00:00 TS -9.24384 182.642 main 695 687 P________PP_P_ SH111978 -9.24241 -177.458 47 0 -9.24241 -177.458 TC 47 -9.24728 -177.469 2 -9.24269 -176.737 TC 20 9 260
1977365S09188 1978 125 SP MM BOB 1978-01-01 06:00:00 TS -9.34126 182.174 main 720 720 O________OP_O_ jtwc_sh SH111978 -9.30000 -177.900 50 0 -9.30000 182.100 TC 50 -9.30472 -177.923 2 -9.50000 -177.500 TC 20 10 256
1977365S09188 1978 125 SP MM BOB 1978-01-01 09:00:00 TS -9.47806 181.662 main 748 748 P________PP_P_ SH111978 -9.37744 -178.350 52 0 -9.37744 -178.350 TC 52 -9.38480 -178.366 2 -9.77255 -178.287 TC 20 11 254
1977365S09188 1978 125 SP MM BOB 1978-01-01 12:00:00 TS -9.62500 181.150 main 752 721 O________OO_O_ jtwc_sh SH111978 -9.50000 -178.800 55 0 -9.50000 181.200 TC 55 -9.50000 -178.800 2 -10.0000 -179.000 TC 20 10 252
1977365S09188 1978 125 SP MM BOB 1978-01-01 15:00:00 TS -9.79021 180.675 main 721 695 P________PP_P_ SH111978 -9.68497 -179.257 57 0 -9.68497 -179.257 TC 57 -9.67618 -179.248 2 -10.1147 -179.538 TC 20 10 249
1977365S09188 1978 125 SP MM BOB 1978-01-01 18:00:00 TS -9.97124 180.228 main 694 671 O________OP_O_ jtwc_sh SH111978 -9.90000 -179.700 60 0 -9.90000 180.300 TC 60 -9.88494 -179.687 2 -10.2000 180.000 TC 20 10 247
1977365S09188 1978 125 SP MM BOB 1978-01-01 21:00:00 TS -10.1703 179.779 main 671 660 P________PP_P_ SH111978 -10.1149 179.885 62 0 -10.1149 179.885 TC 62 -10.1012 179.892 2 -10.3501 179.455 TC 20 9 246
1977365S09188 1978 125 SP MM BOB 1978-01-02 00:00:00 TS -10.3500 179.375 main 662 642 O________OO_O_ jtwc_sh SH111978 -10.3000 179.500 65 1 -10.3000 179.500 TC 65 -10.3000 179.500 2 45 -10.5000 179.000 TC 20 8 248
1977365S09188 1978 125 SP MM BOB 1978-01-02 03:00:00 TS -10.4633 179.038 main 644 636 P________PP_P_ SH111978 -10.4075 179.135 65 1 -10.4075 179.135 TC 65 -10.4383 179.134 2 -10.5999 178.747 TC 22 7 251
1977365S09188 1978 125 SP MM BOB 1978-01-02 06:00:00 TS -10.5643 178.749 main 638 629 O________OP_O_ jtwc_sh SH111978 -10.5000 178.800 65 1 -10.5000 178.800 TC 65 -10.5573 178.797 2 -10.7000 178.600 TC 25 6 247
1977365S09188 1978 125 SP MM BOB 1978-01-02 09:00:00 TS -10.6963 178.477 main 631 623 P________PP_P_ SH111978 -10.6425 178.485 67 1 -10.6425 178.485 TC 67 -10.6727 178.487 2 -10.8275 178.450 TC 25 6 241
1977365S09188 1978 125 SP MM BOB 1978-01-02 12:00:00 TS -10.8500 178.225 main 628 610 O________OO_O_ jtwc_sh SH111978 -10.8000 178.200 70 1 -10.8000 178.200 TC 70 -10.8000 178.200 2 -11.0000 178.300 TC 25 6 237
1977365S09188 1978 125 SP MM BOB 1978-01-02 15:00:00 TS -11.0170 177.982 main 613 599 P________PP_P_ SH111978 -10.9425 177.942 70 1 -10.9425 177.942 TC 70 -10.9482 177.936 2 -11.2350 178.108 TC 27 6 233
1977365S09188 1978 125 SP MM BOB 1978-01-02 18:00:00 TS -11.2031 177.748 main 603 585 O________OP_O_ jtwc_sh SH111978 -11.1000 177.700 70 1 -11.1000 177.700 TC 70 -11.1122 177.692 2 -11.5000 177.900 TC 30 6 229
1977365S09188 1978 125 SP MM BOB 1978-01-02 21:00:00 TS -11.4075 177.524 main 589 572 P________PP_P_ SH111978 -11.2925 177.457 70 1 -11.2925 177.457 TC 70 -11.2951 177.452 2 -11.7499 177.730 TC 30 6 228
1977365S09188 1978 125 SP MM BOB 1978-01-03 00:00:00 TS -11.6250 177.275 main 577 564 O________OO_O_ jtwc_sh SH111978 -11.5000 177.200 70 1 -11.5000 177.200 TC 70 -11.5000 177.200 4 65 -12.0000 177.500 TC 30 7 232
1977365S09188 1978 125 SP MM BOB 1978-01-03 03:00:00 TS -11.8259 176.969 main 568 556 P________PP_P_ SH111978 -11.6850 176.907 72 1 -11.6850 176.907 TC 72 -11.6836 176.938 4 -12.2501 177.123 TC 35 8 236
1977365S09188 1978 125 SP MM BOB 1978-01-03 06:00:00 TS -12.0487 176.640 main 564 541 O________OP_O_ jtwc_sh SH111978 -11.9000 176.600 75 1 -11.9000 176.600 TC 75 -11.8947 176.659 4 -12.5000 176.700 TC 40 8 233
1977365S09188 1978 125 SP MM BOB 1978-01-03 09:00:00 TS -12.2989 176.334 main 546 526 P________PP_P_ SH111978 -12.1549 176.322 80 1 -12.1549 176.322 TC 80 -12.1585 176.350 4 -12.7274 176.342 TC 47 9 227
1977365S09188 1978 125 SP MM BOB 1978-01-03 12:00:00 TS -12.6250 176.000 main 532 512 O________OO_O_ jtwc_sh SH111978 -12.5000 176.000 85 2 -12.5000 176.000 TC 85 -12.5000 176.000 4 -13.0000 176.000 TC 55 11 224
1977365S09188 1978 125 SP MM BOB 1978-01-03 15:00:00 TS -13.0644 175.589 main 509 503 P________PP_P_ SH111978 -12.9625 175.573 90 2 -12.9625 175.573 TC 90 -12.9626 175.570 4 -13.3700 175.642 TC 57 13 221
1977365S09188 1978 125 SP MM BOB 1978-01-03 18:00:00 TS -13.5745 175.150 main 495 484 O________OP_O_ jtwc_sh SH111978 -13.5000 175.100 95 2 -13.5000 175.100 TC 95 -13.4981 175.101 4 -13.8000 175.300 TC 60 13 219
1977365S09188 1978 125 SP MM BOB 1978-01-03 21:00:00 TS -14.1080 174.724 main 484 463 P________PP_P_ SH111978 -14.0650 174.635 97 3 -14.0650 174.635 TC 97 -14.0595 174.632 4 -14.2424 174.992 TC 62 13 217
1977365S09188 1978 125 SP MM BOB 1978-01-04 00:00:00 TS -14.6250 174.325 main 471 463 O________OO_O_ jtwc_sh SH111978 -14.6000 174.200 100 3 -14.6000 174.200 TC 100 -14.6000 174.200 4 70 -14.7000 174.700 TC 65 12 217
1977365S09188 1978 125 SP MM BOB 1978-01-04 03:00:00 TS -15.0583 173.971 main 458 458 P________PP_P_ SH111978 -15.0149 173.820 100 3 -15.0149 173.820 TC 100 -15.0533 173.844 4 -15.1500 174.400 TC 67 11 217
1977365S09188 1978 125 SP MM BOB 1978-01-04 06:00:00 TS -15.4699 173.658 main 459 459 O________OP_O_ jtwc_sh SH111978 -15.4000 173.500 100 3 -15.4000 173.500 TC 100 -15.4795 173.532 4 -15.6000 174.100 TC 70 10 214
1977365S09188 1978 125 SP MM BOB 1978-01-04 09:00:00 TS -15.9121 173.375 main 466 465 P________PP_P_ SH111978 -15.8499 173.227 97 3 -15.8499 173.227 TC 97 -15.8910 173.253 4 -16.0575 173.792 TC 72 10 210
1977365S09188 1978 125 SP MM BOB 1978-01-04 12:00:00 TS -16.3500 173.125 main 475 466 O________OO_O_ jtwc_sh SH111978 -16.3000 173.000 95 2 -16.3000 173.000 TC 95 -16.3000 173.000 4 -16.5000 173.500 TC 75 10 208
1977365S09188 1978 125 SP MM BOB 1978-01-04 15:00:00 TS -16.7558 172.901 main 475 475 P________PP_P_ SH111978 -16.6999 172.800 92 2 -16.6999 172.800 TC 92 -16.7085 172.761 4 -16.9149 173.242 TC 75 9 208
1977365S09188 1978 125 SP MM BOB 1978-01-04 18:00:00 TS -17.1549 172.685 main 485 485 O________OP_O_ jtwc_sh SH111978 -17.1000 172.600 90 2 -17.1000 172.600 TC 90 -17.1197 172.541 4 -17.3000 173.000 TC 75 9 208
1977365S09188 1978 125 SP MM BOB 1978-01-04 21:00:00 TS -17.5627 172.451 main 499 489 P________PP_P_ SH111978 -17.5350 172.357 87 2 -17.5350 172.357 TC 87 -17.5460 172.326 4 -17.6349 172.765 TC 77 10 209
1977365S09188 1978 125 SP MM BOB 1978-01-05 00:00:00 TS -18.0000 172.200 main 492 483 O________OO_O_ jtwc_sh SH111978 -18.0000 172.100 85 2 -18.0000 172.100 TC 85 -18.0000 172.100 4 100 -18.0000 172.500 TC 80 11 208
1977365S09188 1978 125 SP MM BOB 1978-01-05 03:00:00 TS -18.4899 171.933 main 483 480 P________PP_P_ SH111978 -18.4849 171.857 80 1 -18.4849 171.857 TC 80 -18.5124 171.843 4 -18.4775 172.172 TC 77 11 208
1977365S09188 1978 125 SP MM BOB 1978-01-05 06:00:00 TS -19.0125 171.643 main 483 483 O________OP_O_ jtwc_sh SH111978 -19.0000 171.600 75 1 -19.0000 171.600 TC 75 -19.0499 171.572 4 -19.0000 171.800 TC 75 12 208
1977365S09188 1978 125 SP MM BOB 1978-01-05 09:00:00 TS -19.5562 171.324 main 499 482 P________PP_P_ SH111978 -19.5575 171.307 72 1 -19.5575 171.307 TC 72 -19.5874 171.290 4 -19.5225 171.393 TC 75 12 210
1977365S09188 1978 125 SP MM BOB 1978-01-05 12:00:00 TS -20.0750 171.000 main 476 427 O________OO_O_ jtwc_sh SH111978 -20.1000 171.000 70 1 -20.1000 171.000 TC 70 -20.1000 171.000 4 -20.0000 171.000 TC 75 11 211
1977365S09188 1978 125 SP MM BOB 1978-01-05 15:00:00 TS -20.5199 170.699 main 427 380 P________PP_P_ SH111978 -20.5724 170.700 65 1 -20.5724 170.700 TC 65 -20.5697 170.719 4 -20.3649 170.677 TC 70 10 213
1977365S09188 1978 125 SP MM BOB 1978-01-05 18:00:00 TS -20.9274 170.407 main 380 335 O________OP_O_ jtwc_sh SH111978 -21.0000 170.400 60 0 -21.0000 170.400 TC 60 -21.0095 170.429 4 -20.7000 170.400 MM 65 10 213
1977365S09188 1978 125 SP MM BOB 1978-01-05 21:00:00 TS -21.3354 170.124 main 335 294 P________PP_P_ SH111978 -21.4149 170.107 57 0 -21.4149 170.107 TC 57 -21.4196 170.125 4 -21.0924 170.157 MM 52 10 214
1977365S09188 1978 125 SP MM BOB 1978-01-06 00:00:00 TS -21.7250 169.825 main 294 257 O________OO_O_ jtwc_sh SH111978 -21.8000 169.800 55 0 -21.8000 169.800 TC 55 -21.8000 169.800 4 85 -21.5000 169.900 TC 40 995 10 218
1977365S09188 1978 125 SP MM BOB 1978-01-06 03:00:00 TS -22.1017 169.478 main 257 216 P________PP_P_ SH111978 -22.1649 169.465 55 0 -22.1649 169.465 TC 55 -22.1619 169.438 4 -21.9151 169.543 TC 45 991 10 222
1977365S09188 1978 125 SP MM BOB 1978-01-06 06:00:00 TS -22.4488 169.114 main 216 190 O________OP_O_ jtwc_sh SH111978 -22.5000 169.100 55 0 -22.5000 169.100 TC 55 -22.4951 169.057 4 -22.3000 169.200 TC 50 987 9 225
1977365S09188 1978 125 SP MM BOB 1978-01-06 09:00:00 TS -22.7645 168.768 main 193 163 P________PP_P_ SH111978 -22.8150 168.700 52 0 -22.8150 168.700 TC 52 -22.8057 168.673 4 -22.6223 169.000 TC 52 986 9 227
1977365S09188 1978 125 SP MM BOB 1978-01-06 12:00:00 TS -23.0500 168.425 main 163 158 O________OO_O_ jtwc_sh SH111978 -23.1000 168.300 50 0 -23.1000 168.300 TC 50 -23.1000 168.300 4 -22.9000 168.800 TC 55 985 8 229
1977365S09188 1978 125 SP MM BOB 1978-01-06 15:00:00 TS -23.3096 168.074 main 158 147 P________PP_P_ SH111978 -23.3499 167.935 50 0 -23.3499 167.935 TC 50 -23.3810 167.948 4 -23.1575 168.480 TC 52 987 8 231
1977365S09188 1978 125 SP MM BOB 1978-01-06 18:00:00 TS -23.5624 167.728 main 157 152 O________OP_O_ jtwc_sh SH111978 -23.6000 167.600 50 0 -23.6000 167.600 TC 50 -23.6498 167.612 4 -23.4000 168.100 TC 50 989 8 230
1977365S09188 1978 125 SP MM BOB 1978-01-06 21:00:00 TS -23.8384 167.387 main 164 164 P________PP_P_ SH111978 -23.8924 167.285 50 0 -23.8924 167.285 TC 50 -23.9186 167.295 4 -23.6501 167.685 TC 45 991 8 227
1977365S09188 1978 125 SP MM BOB 1978-01-07 00:00:00 TS -24.1250 167.075 main 191 191 O________OO_O_ jtwc_sh SH111978 -24.2000 167.000 50 0 -24.2000 167.000 TC 50 -24.2000 167.000 2 55 -23.9000 167.300 TC 40 994 8 223
1977365S09188 1978 125 SP MM BOB 1978-01-07 03:00:00 TS -24.4092 166.806 main 223 223 P________PP_P_ SH111978 -24.4924 166.742 47 0 -24.4924 166.742 TC 47 -24.5023 166.712 2 -24.1498 167.027 TC 40 994 7 219
1977365S09188 1978 125 SP MM BOB 1978-01-07 06:00:00 TS -24.7050 166.562 main 257 257 O________OP_O_ jtwc_sh SH111978 -24.8000 166.500 45 0 -24.8000 166.500 TC 45 -24.8198 166.447 2 -24.4000 166.800 TC 40 995 8 217
1977365S09188 1978 125 SP MM BOB 1978-01-07 09:00:00 TS -25.0181 166.307 main 293 293 P________PP_P_ SH111978 -25.1425 166.242 45 0 -25.1425 166.242 TC 45 -25.1524 166.209 2 -24.6350 166.535 TC 40 995 8 214
1977365S09188 1978 125 SP MM BOB 1978-01-07 12:00:00 TS -25.3500 166.075 main 329 329 O________OO_O_ jtwc_sh SH111978 -25.5000 166.000 45 0 -25.5000 166.000 TC 45 -25.5000 166.000 2 -24.9000 166.300 TC 40 995 8 211
1977365S09188 1978 125 SP MM BOB 1978-01-07 15:00:00 TS -25.6892 165.866 main 377 377 P________PP_P_ SH111978 -25.8425 165.777 42 0 -25.8425 165.777 TC 42 -25.8443 165.773 2 -25.2274 166.135 TC 40 995 8 206
1977365S09188 1978 125 SP MM BOB 1978-01-07 18:00:00 TS -26.0512 165.695 main 425 425 O________OP_O_ jtwc_sh SH111978 -26.2000 165.600 40 0 -26.2000 165.600 TC 40 -26.2049 165.581 2 -25.6000 166.000 TC 40 995 8 201
1977365S09188 1978 125 SP MM BOB 1978-01-07 21:00:00 TS -26.4395 165.543 main 463 463 P________PP_P_ SH111978 -26.5850 165.455 40 0 -26.5850 165.455 TC 40 -26.5880 165.449 2 -26.0000 165.813 TC 40 995 8 194
1977365S09188 1978 125 SP MM BOB 1978-01-08 00:00:00 TS -26.8500 165.475 main 506 506 O________OO_O_ jtwc_sh SH111978 -27.0000 165.400 40 0 -27.0000 165.400 TC 40 -27.0000 165.400 2 50 -26.4000 165.700 TC 40 995 8 182
1977365S09188 1978 125 SP MM BOB 1978-01-08 03:00:00 TS -27.2746 165.527 main 560 560 P________PP_P_ SH111978 -27.4350 165.455 40 0 -27.4350 165.455 TC 40 -27.4785 165.442 2 -26.7500 165.755 TC 40 995 9 169
1977365S09188 1978 125 SP MM BOB 1978-01-08 06:00:00 TS -27.7199 165.668 main 600 600 O________OP_O_ jtwc_sh SH111978 -27.9000 165.600 40 0 -27.9000 165.600 TC 40 -27.9798 165.571 2 -27.1000 165.900 TC 40 995 10 163
1977365S09188 1978 125 SP MM BOB 1978-01-08 09:00:00 TS -28.1990 165.846 main 654 652 P________PP_P_ SH111978 -28.4225 165.785 37 0 -28.4225 165.785 TC 37 -28.4661 165.764 2 -27.4850 166.050 TC 40 995 10 160
1977365S09188 1978 125 SP MM BOB 1978-01-08 12:00:00 TS -28.6500 166.050 main 695 695 O________OO_O_ jtwc_sh SH111978 -28.9000 166.000 35 0 -28.9000 166.000 TC 35 -28.9000 166.000 2 -27.9000 166.200 TC 40 995 9 160
1977365S09188 1978 125 SP MM BOB 1978-01-08 15:00:00 TS -28.9948 166.179 main 738 738 P________PP_P_ SH111978 -29.2373 166.178 35 0 -29.2373 166.178 TC 35 -29.1998 166.090 2 -28.3048 166.271 TC 32 999 7 158
1977365S09188 1978 125 SP MM BOB 1978-01-08 18:00:00 TS -29.3125 166.359 main 771 771 O________OP_O_ jtwc_sh SH111978 -29.5000 166.400 35 0 -29.5000 166.400 TC 35 -29.4499 166.237 2 -28.8000 166.400 TC 25 1003 8 151
1977365S09188 1978 125 SP MM BOB 1978-01-08 21:00:00 TS -29.6668 166.610 main 777 719 P________PP_P_ SH111978 -29.7260 166.617 35 0 -29.7260 166.617 TC 35 -29.7004 166.539 2 -29.5147 166.667 TC 22 1004 10 139
1977365S09188 1978 125 SP MM BOB 1978-01-09 00:00:00 TS -30.0500 167.100 main 719 634 O________OO_O_ jtwc_sh SH111978 -30.0000 167.100 35 0 -30.0000 167.100 TC 35 -30.0000 167.100 2 40 -30.2000 167.100 TC 20 1005 14 124
1977365S09188 1978 125 SP MM BOB 1978-01-09 03:00:00 TS -30.4729 167.978 main 619 523 P________PP_P_ SH111978 -30.4202 168.050 32 -1 -30.4202 168.050 TC 32 -30.4338 168.121 2 -30.6175 167.691 TC 20 1005 19 116
1977365S09188 1978 125 SP MM BOB 1978-01-09 06:00:00 TS -30.9017 169.099 main 517 421 O________OP_O_ jtwc_sh SH111978 -30.9000 169.300 30 -1 -30.9000 169.300 TC 30 -30.9069 169.396 2 -30.9000 168.400 TC 20 1005 22 113
1977365S09188 1978 125 SP MM BOB 1978-01-09 09:00:00 TS -31.3199 170.302 main 416 331 P________PP_P_ SH111978 -31.3746 170.701 30 -1 -31.3746 170.701 TC 30 -31.3749 170.750 2 -31.1555 169.054 TC 20 1005 22 111
1977365S09188 1978 125 SP MM BOB 1978-01-09 12:00:00 TS -31.7000 171.475 main 328 279 O________OO_O_ jtwc_sh SH111978 -31.8000 172.000 30 -1 -31.8000 172.000 TC 30 -31.8000 172.000 2 -31.4000 169.900 TC 20 1005 19 111
1977365S09188 1978 125 SP MM BOB 1978-01-09 15:00:00 TS -32.0076 172.411 main 279 245 P________PP_P_ SH111978 -32.1200 172.842 -1 -32.1200 172.842 TC -32.0892 172.837 2 -31.7011 171.125 TC 20 16 111
1977365S09188 1978 125 SP MM BOB 1978-01-09 18:00:00 TS -32.2875 173.261 main 246 234 O________OP_O_ jtwc_sh SH111978 -32.4000 173.500 -1 -32.4000 173.500 TC -32.3500 173.546 2 -32.0000 172.500 TC 20 15 111
1977365S09188 1978 125 SP MM BOB 1978-01-09 21:00:00 TS -32.5579 174.118 main 234 234 P________PP_P_ SH111978 -32.6687 174.207 -1 -32.6687 174.207 TC -32.6364 174.231 2 -32.2578 173.825 TC 20 16 112
1977365S09188 1978 125 SP MM BOB 1978-01-10 00:00:00 TS -32.8750 175.000 main 256 256 O________OO_O_ jtwc_sh SH111978 -33.0000 175.000 -1 -33.0000 175.000 TC -33.0000 175.000 1 30 -32.5000 175.000 TC 20 17 115
1977365S09188 1978 125 SP MM BOB 1978-01-10 03:00:00 TS -33.2776 175.943 main 265 265 P________PP_P_ SH111978 -33.4471 175.984 -1 -33.4471 175.984 TC -33.4759 175.937 1 -32.7404 175.869 TC 20 18 117
1977365S09188 1978 125 SP MM BOB 1978-01-10 06:00:00 TS -33.7019 176.930 main 296 296 O________OP_O_ jtwc_sh SH111978 -34.0000 177.100 -1 -34.0000 177.100 TC -34.0417 177.028 1 -33.0000 176.600 TC 20 18 116
1977365S09188 1978 125 SP MM BOB 1978-01-10 09:00:00 TS -34.0991 177.925 main 350 350 P________PP_P_ SH111978 -34.6322 178.281 -1 -34.6322 178.281 TC -34.6614 178.231 1 -33.2848 177.415 TC 17 16 112
1977365S09188 1978 125 SP MM BOB 1978-01-10 12:00:00 TS -34.3286 178.757 main 370 370 O________OO_O_ jtwc_sh SH111978 -35.3000 179.500 -1 -35.3000 179.500 TC -35.3000 179.500 6 -33.6000 178.200 TC 15 8 79
1977365S09188 1978 125 SP MM BOB 1978-01-10 15:00:00 TS -33.9418 178.916 main 415 385 ____________P_ SH111978 -1 TC 6 -33.9418 178.916 TC 17 7 88
1977365S09188 1978 125 SP MM BOB 1978-01-10 18:00:00 TS -34.3000 179.600 main 385 370 ____________O_ -1 6 -34.3000 179.600 TC 20 13 122
1977365S09188 1978 125 SP MM BOB 1978-01-10 21:00:00 TS -34.6496 180.301 main 377 364 ____________P_ -1 6 -34.6496 -179.699 TC 20 13 121
1977365S09188 1978 125 SP MM BOB 1978-01-11 00:00:00 TS -35.0000 181.000 main 369 365 ____________O_ -1 -35.0000 -179.000 TC 20 13 121
1977365S09188 1978 125 SP MM BOB 1978-01-11 03:00:00 TS -35.3421 181.701 main 384 376 ____________P_ -1 -35.3421 -178.299 TC 22 13 122
1977365S09188 1978 125 SP MM BOB 1978-01-11 06:00:00 TS -35.7000 182.400 main 404 404 ____________O_ -1 -35.7000 -177.600 TC 25 14 121
1977365S09188 1978 125 SP MM BOB 1978-01-11 09:00:00 TS -36.0556 183.175 main 445 445 ____________P_ -1 -36.0556 -176.825 TC 25 14 125
1977365S09188 1978 125 SP MM BOB 1978-01-11 12:00:00 TS -36.5000 183.800 main 478 473 ____________O_ -1 -36.5000 -176.200 TC 25 12 149
1977365S09188 1978 125 SP MM BOB 1978-01-11 15:00:00 TS -37.1257 183.974 main 480 474 ____________P_ -1 -37.1257 -176.026 TC 22 13 166
1977365S09188 1978 125 SP MM BOB 1978-01-11 18:00:00 TS -37.8000 184.200 main 491 491 ____________O_ -1 -37.8000 -175.800 TC 20 15 149
1977365S09188 1978 125 SP MM BOB 1978-01-11 21:00:00 TS -38.3859 184.930 main 555 555 ____________P_ -1 -38.3859 -175.070 TC 20 18 128
1977365S09188 1978 125 SP MM BOB 1978-01-12 00:00:00 TS -38.9000 186.000 main 657 ____________O_ -1 -38.9000 -174.000 TC 20 20 122

Digital Typhoon Data and Search

About IBTrACS Database

This database is a web-friendly format of International Best Track Archive for Climate Stewardship (IBTrACS), a global best track data archive curated by NOAA dating back to 1842.

Updated: 2021-12-06